Tiempo atmosférico en la estación meteorológica de Chinchilla, Albacete (880 m.)



Fecha
DESCASC
Temp. máxima en grados centígrados (hora)
DESCASC
Temp. mínima en grados centígrados (hora)
DESCASC
Temp. media en grados centígrados
DESCASC
Racha de viento máxima en m/sg (hora)
DESCASC
Velocidad máxima media en intervalos de 10 minutos(hora)
DESCASC
Precipitaciones diarias en mm
DESCASC
Precipitaciones de 00:00 a 06:00 en mm
DESCASC
Precipitaciones de 06:00 a 12:00 en mm
DESCASC
Precipitaciones de 12:00 a 18:00 en mm
DESCASC
Precipitaciones de 18:00 a 24:00 en mm
DESCASC
19-01-2020 7.3 (00:00) -0.8 (19:50) 3.3 15 (01:40) 7.22 (05:10) 7.7 4.2 0.3 2.8 0.4
18-01-2020 10.4 (15:00) 3.2 (01:20) 6.8 11.67 (23:00) 7.5 (23:10) 0.4 0 0.3 0.1 0
17-01-2020 10.5 (15:00) 4.6 (05:40) 7.5 12.78 (13:50) 9.17 (12:00) 0 0 0 0 0
16-01-2020 15.5 (16:40) 3.2 (00:00) 9.4 5 (14:30) 3.33 (14:30) 0 0 0 0 0
15-01-2020 11.4 (16:30) 0.8 (00:00) 6.1 8.89 (15:30) 5.28 (15:30) 0 0 0 0 0
14-01-2020 8 (16:10) -0.4 (00:00) 3.8 9.44 (04:00) 5.28 (20:30) 0 0 0 0 0
13-01-2020 8.2 (13:30) -1.1 (-00:0) 3.5 8.89 (17:00) 5.56 (17:00) 0 0 0 0 0
12-01-2020 8.4 (15:30) -1.3 (-00:0) 3.5 10.83 (13:20) 6.39 (13:20) 0 0 0 0 0
11-01-2020 8.5 (16:30) -2.1 (-00:0) 3.2 6.67 (03:10) 4.44 (03:10) 0 0 0 0 0
10-01-2020 8.5 (16:10) 1.1 (00:00) 4.8 12.22 (14:10) 5.83 (02:30) 0 0 0 0 0
09-01-2020 12.6 (15:50) 1.5 (00:00) 7.1 8.89 (23:20) 5 (23:30) 0.1 0 0.1 0 0
08-01-2020 14.6 (14:30) 2.2 (00:00) 8.4 8.61 (14:50) 5.28 (17:30) 0 0 0 0 0
07-01-2020 10.9 (15:40) 2 (00:00) 6.4 7.22 (02:40) 4.72 (02:10) 0 0 0 0 0
06-01-2020 16.4 (14:20) 2 (00:00) 9.2 5 (16:10) 3.89 (04:30) 0 0 0 0 0
05-01-2020 13.1 (15:50) -2.6 (-00:0) 5.3 5 (13:50) 3.33 (22:40) 0.1 0 0.1 0 0
04-01-2020 12 (16:00) -2.7 (-00:0) 4.6 6.94 (00:50) 4.17 (02:00) 0 0 0 0 0
03-01-2020 -- (--) -- (--) -- -- (--) -- (--) -- -- -- -- 0
02-01-2020 -- (--) -- (--) -- -- (--) -- (--) -- -- -- -- --
01-01-2020 -- (--) -- (--) -- -- (--) -- (--) -- -- -- -- --
31-12-2019 -- (--) -- (--) -- -- (--) -- (--) -- -- -- -- --
30-12-2019 -- (--) -- (--) -- -- (--) -- (--) -- -- -- -- --
29-12-2019 -- (--) -- (--) -- -- (--) -- (--) -- -- -- -- --
28-12-2019 -- (--) -- (--) -- -- (--) -- (--) -- 0 0 -- --
27-12-2019 16.6 (16:10) 3.7 (00:00) 10.2 6.11 (07:20) 4.44 (02:00) 0 0 0 0 0
26-12-2019 12.9 (15:00) 5.9 (00:00) 9.4 8.33 (06:50) 6.11 (06:40) 0 0 0 0 0
25-12-2019 18.8 (14:20) 6.1 (00:00) 12.4 5.56 (19:10) 4.44 (18:30) 0 0 0 0 0
24-12-2019 17.2 (16:00) 3.8 (00:00) 10.5 4.72 (04:10) 3.89 (02:40) 0 0 0 0 0

Gráficas

Temp. máximas Temp. mínimas Temp. medias Precipitaciones Rachas de viento máximas Velocidades máximas media en intervalos de 10 minutos

Datos horarios

Fecha y hora oficial Temperatura (ºC) Velocidad del viento (km/h) Dirección del viento Racha (km/h) Dirección de racha Precipitación (mm) Presión (hPa) Tendencia (hPa) Humedad (%)
2020-01-22 23:00:00 1.8 12 Este 18 Sudeste 0 915.1 0.7 89
2020-01-22 22:00:00 2.2 14 Este 19 Este 0 914.7 0 88
2020-01-22 21:00:00 2.6 14 Este 24 Este 0 914.4 0 88
2020-01-22 20:00:00 3.1 15 Este 21 Este 0 914.4 0 86
2020-01-22 19:00:00 4.1 13 Sudeste 17 Este 0 914.7 0.1 81
2020-01-22 18:00:00 5.4 10 Sudeste 22 Sudeste 0 914.4 -0.5 72
2020-01-22 17:00:00 7.9 15 Sudeste 23 Sudeste 0 914.4 -1.2 68
2020-01-22 16:00:00 8.1 17 Sudeste 25 Sudeste 0 914.6 -1.6 65
2020-01-22 15:00:00 7.4 13 Este 26 Sudeste 0 914.9 -1.7 71
2020-01-22 14:00:00 8.2 14 Este 28 Sudeste 0 915.6 -0.8 71
2020-01-22 13:00:00 9.4 15 Este 28 Sudeste 0 916.2 0.5 74
2020-01-22 12:00:00 7.6 15 Este 29 Este 0 916.6 1.3 85
2020-01-22 11:00:00 6.1 18 Este 30 Sudeste 0 916.4 1.5 94
2020-01-22 10:00:00 4.2 21 Sudeste 33 Sudeste 0 915.7 1.1 94
2020-01-22 09:00:00 2.2 19 Este 32 Sudeste 0 915.3 0.8 94
2020-01-22 08:00:00 2.5 20 Sudeste 32 Este 0 914.9 0.4 94
2020-01-22 07:00:00 2.3 10 Este 30 Sudeste 0 914.6 0.1 94
2020-01-22 06:00:00 3.2 15 Sudeste 24 Sudeste 0.7 914.5 0.1 94
2020-01-22 05:00:00 3.2 11 Sudeste 20 Sudeste 1.3 914.5 0.2 94
2020-01-22 04:00:00 3 14 Sudeste 31 Sudeste 0.7 914.5 0.5 94
2020-01-22 03:00:00 3 19 Sudeste 28 Sudeste 1.5 914.4 0.2 94
2020-01-22 02:00:00 3.2 19 Sudeste 27 Sudeste 0.7 914.3 0.4 94
2020-01-22 01:00:00 2.7 14 Sudeste 22 Sudeste 0 914 0.7 94
2020-01-22 00:00:00 2.9 13 Sudeste 28 Sudeste 0 914.2 1.3 94
2020-01-21 23:00:00 3.1 18 Este 27 Este 0 913.9 1.6 94
2020-01-21 22:00:00 3.2 15 Este 23 Este 0.1 913.3 1.9 94
2020-01-21 21:00:00 3.1 10 Este 22 Este 0.1 912.9 2.5 94
2020-01-21 20:00:00 2.7 9 Este 25 Nordeste 1.1 912.3 2 94
2020-01-21 19:00:00 1.5 9 Este 36 Nordeste 1 911.4 1.4 94
2020-01-21 18:00:00 1.5 24 Nordeste 42 Nordeste 0 910.4 0.7 94
2020-01-21 17:00:00 1.3 19 Nordeste 39 Nordeste 0 910.3 0.2 94
2020-01-21 16:00:00 1.6 23 Nordeste 39 Nordeste 0.6 910 0.2 94
2020-01-21 15:00:00 1.8 14 Nordeste 37 Nordeste 1.2 909.7 -0.9 94
2020-01-21 14:00:00 1.5 20 Nordeste 37 Nordeste 0.5 910.1 -1.5 94
2020-01-21 13:00:00 0.9 19 Nordeste 36 Nordeste 1 909.8 -1 94
2020-01-21 12:00:00 0 16 Nordeste 26 Nordeste 5.5 910.6 0 94
2020-01-21 11:00:00 0.7 15 Nordeste 28 Norte 5.2 911.6 0.9 94
2020-01-21 10:00:00 1.5 17 Nordeste 35 Nordeste 1.2 910.8 0 94
2020-01-21 09:00:00 1 18 Nordeste 37 Nordeste 1 910.6 0.7 94
2020-01-21 08:00:00 0.5 18 Nordeste 40 Nordeste 2.3 910.7 -0.9 94
2020-01-21 07:00:00 0.9 21 Nordeste 49 Norte 3.6 910.8 -1.1 94
2020-01-21 06:00:00 0.7 26 Nordeste 49 Nordeste 7.3 909.9 -2.7 94
2020-01-21 05:00:00 1.1 18 Nordeste 41 Nordeste 1.3 911.6 -1.6 93
2020-01-21 04:00:00 1.1 24 Nordeste 48 Nordeste 0.8 911.9 -2.3 93
2020-01-21 03:00:00 0.8 25 Nordeste 48 Nordeste 0.3 912.6 -2.4 92
2020-01-21 02:00:00 0.4 22 Nordeste 42 Nordeste 0.3 913.2 -0.7 91
2020-01-21 01:00:00 0.4 14 Nordeste 29 Este 2.5 914.2 0 91
2020-01-21 00:00:00 1 14 Este 49 Nordeste 1.2 915 0.4 90
2020-01-20 23:00:00 0.8 18 Nordeste 50 Este 1.3 913.9 -0.4 90
2020-01-20 22:00:00 1.7 22 Nordeste 51 Nordeste 1.6 914.2 0.4 91
2020-01-20 21:00:00 2 19 Nordeste 50 Nordeste 0.1 914.6 1.4 91
2020-01-20 20:00:00 1.6 21 Nordeste 50 Nordeste 0.2 914.3 1.1 90
2020-01-20 19:00:00 0.9 14 Nordeste 38 Nordeste 0.4 913.8 1.2 90
2020-01-20 18:00:00 1 21 Este 55 Este 0.1 913.2 -0.4 88
2020-01-20 17:00:00 1.4 26 Este 61 Este 0 913.2 -0.5 87
2020-01-20 16:00:00 2.4 27 Este 62 Nordeste 0.4 912.6 -2 88
2020-01-20 15:00:00 1.7 15 Este 45 Este 1.3 913.6 -0.4 91
2020-01-20 14:00:00 1.5 21 Nordeste 53 Este 2.2 913.7 -1.1 92
2020-01-20 13:00:00 0.5 17 Nordeste 50 Nordeste 1.2 914.6 0.7 92
2020-01-20 12:00:00 0.1 18 Nordeste 45 Este 0.7 914 0.5 93
2020-01-20 11:00:00 -0.4 8 Nordeste 22 Este 0.1 914.8 2 93
2020-01-20 10:00:00 -0.8 5 Nordeste 17 Nordeste 0 913.9 1.1 93
2020-01-20 09:00:00 -1 6 Nordeste 32 Este 0 913.5 0.8 93
2020-01-20 08:00:00 -1.8 14 Nordeste 30 Norte 0 912.8 -0.4 93
2020-01-20 07:00:00 -2.3 21 Norte 36 Norte 0 912.8 -0.7 93
2020-01-20 06:00:00 -2.4 19 Norte 35 Norte 0 912.7 -1.2 92
2020-01-20 05:00:00 -2.3 21 Norte 41 Norte 0 913.2 -1.5 92
2020-01-20 04:00:00 -2.1 23 Norte 41 Norte 0 913.5 -1 92
2020-01-20 03:00:00 -1.6 13 Norte 40 Nordeste 0 913.9 -0.9 92
2020-01-20 02:00:00 -1 10 Nordeste 30 Nordeste 0 914.7 0.4 93
2020-01-20 01:00:00 -1 16 Nordeste 32 Norte 0 914.5 -0.3 94
2020-01-20 00:00:00 -0.8 13 Nordeste 30 Nordeste 0 914.8 0.5 94
2020-01-19 23:00:00 -0.7 14 Norte 30 Nordeste 0 914.3 0 94
2020-01-19 22:00:00 -0.8 16 Norte 37 Este 0.1 914.8 0.9 93
2020-01-19 21:00:00 -0.5 18 Nordeste 44 Nordeste 0 914.3 0.3 93
2020-01-19 20:00:00 -0.7 23 Nordeste 53 Nordeste 0.1 914.3 0.7 93
2020-01-19 19:00:00 -0.5 22 Nordeste 47 Nordeste 0.2 913.9 0.9 93
2020-01-19 18:00:00 -0.2 12 Nordeste 31 Nordeste 0.4 914 1 93
2020-01-19 17:00:00 -0.4 11 Nordeste 19 Nordeste 0.1 913.6 0.3 93
2020-01-19 16:00:00 0 8 Norte 20 Norte 0.5 913 -0.6 93
2020-01-19 15:00:00 -0.2 12 Norte 24 Nordeste 0.7 913 -0.8 92
2020-01-19 14:00:00 -0.4 16 Nordeste 32 Nordeste 1 913.3 -0.1 90
2020-01-19 13:00:00 2.1 11 Nordeste 32 Norte 0.1 913.6 0.7 90
2020-01-19 12:00:00 2.1 23 Norte 37 Norte 0.2 913.8 1 92
2020-01-19 11:00:00 1.6 24 Norte 34 Norte 0 913.4 0.8 93
2020-01-19 10:00:00 1.5 18 Norte 34 Norte 0 912.9 -0.1 95
2020-01-19 09:00:00 1.7 18 Noroeste 34 Noroeste 0 912.8 -0.9 95
2020-01-19 08:00:00 2.3 19 Noroeste 33 Noroeste 0 912.6 -1.5 95
2020-01-19 07:00:00 2.5 14 Noroeste 27 Noroeste 0.1 913 -2.1 95
2020-01-19 06:00:00 2.7 14 Noroeste 40 Norte 2.9 913.7 -1.9 95
2020-01-19 05:00:00 2.8 18 Noroeste 44 Norte 0.1 914.1 -2.6 93
2020-01-19 04:00:00 4.1 16 Noroeste 31 Noroeste 0.8 915.1 -2.4 92
2020-01-19 03:00:00 4 12 Noroeste 33 Noroeste 0.2 915.6 -2.6 90
2020-01-19 02:00:00 4.2 23 Noroeste 54 Norte 0.2 916.7 -2.3 87
2020-01-19 01:00:00 6.8 13 Oeste 27 Noroeste 0 917.5 -1.5 89
2020-01-19 00:00:00 7.3 18 Oeste 37 Oeste 0 918.2 -1.4 87
2020-01-18 23:00:00 7.5 25 Noroeste 42 Noroeste 0 919 -1.6 87
2020-01-18 22:00:00 7.3 20 Noroeste 32 Oeste 0 919 -2 87
2020-01-18 21:00:00 7.2 23 Noroeste 37 Noroeste 0 919.6 -1.9 85
2020-01-18 20:00:00 7.3 22 Noroeste 37 Oeste 0 920.6 -1.9 81
2020-01-18 19:00:00 8 20 Oeste 35 Noroeste 0 921 -2.2 76
2020-01-18 18:00:00 8 17 Noroeste 40 Noroeste 0.1 921.5 -2.4 73
2020-01-18 17:00:00 8.7 20 Noroeste 33 Oeste 0 922.5 -2.6 65
2020-01-18 16:00:00 8.8 17 Oeste 34 Oeste 0 923.2 -2.9 64
2020-01-18 15:00:00 10.4 14 Oeste 29 Noroeste 0 923.9 -3.4 61
2020-01-18 14:00:00 10 14 Sudoeste 26 Oeste 0 925.1 -2.5 64
2020-01-18 13:00:00 8 12 Sudoeste 19 Sudoeste 0 926.1 -1.2 82
2020-01-18 12:00:00 6.2 0 Calma -- -- 0 927.3 -0.8 89
2020-01-18 11:00:00 4.6 0 Calma 10 Sudoeste 0 927.6 0.1 90
2020-01-18 10:00:00 4.1 0 Calma 11 Oeste 0.3 927.3 0.7 88
2020-01-18 09:00:00 3.6 4 Noroeste 7 Noroeste 0 928.1 1.9 86
2020-01-18 08:00:00 3.9 5 Oeste 8 Nordeste 0 927.5 1.3 87
2020-01-18 07:00:00 3.6 0 Calma -- -- 0 926.6 0.1 85
2020-01-18 06:00:00 3.9 0 Calma 6 Sur 0 926.2 -1.4 85
2020-01-18 05:00:00 3.8 4 Nordeste 15 Este 0 926.2 -2 86
2020-01-18 04:00:00 3.6 8 Este 16 Este 0 926.5 -2.3 84
2020-01-18 03:00:00 3.8 5 Sudeste 14 Sudeste 0 927.6 -1.2 84
2020-01-18 02:00:00 4 0 Calma 9 Sudeste 0 928.2 -0.5 83
2020-01-18 01:00:00 3.3 4 Sudoeste 10 Sudoeste 0 928.8 0.4 79
2020-01-18 00:00:00 4.7 7 Norte 13 Noroeste 0 928.8 0.3 77
2020-01-17 23:00:00 5.1 9 Norte 17 Noroeste 0 928.7 0.6 74
2020-01-17 22:00:00 5.4 9 Norte 31 Norte 0 928.4 0.3 71
2020-01-17 21:00:00 6 18 Noroeste 34 Noroeste 0 928.5 0.7 67
2020-01-17 20:00:00 6.3 19 Noroeste 33 Noroeste 0 928.1 0.7 65
2020-01-17 19:00:00 6.8 14 Noroeste 28 Noroeste 0 928.1 0.8 62
2020-01-17 18:00:00 8.2 13 Noroeste 31 Noroeste 0 927.8 0.3 57
2020-01-17 17:00:00 9.8 23 Noroeste 45 Oeste 0 927.4 -0.2 52
2020-01-17 16:00:00 10.3 22 Noroeste 91 Noroeste 0 927.3 -1.2 52
2020-01-17 15:00:00 10.4 26 Noroeste 41 Noroeste 0 927.5 -1.1 54
2020-01-17 14:00:00 10 26 Noroeste 46 Noroeste 0 927.6 -0.4 59
2020-01-17 13:00:00 9 26 Noroeste 45 Noroeste 0 928.5 1.2 61
2020-01-17 12:00:00 8.9 33 Noroeste 46 Oeste 0 928.6 1.6 64
2020-01-17 11:00:00 6.6 21 Noroeste 33 Noroeste 0 928 1.8 66
2020-01-17 10:00:00 5.7 15 Noroeste 27 Noroeste 0 927.3 1.8 64
2020-01-17 09:00:00 5.9 18 Noroeste 36 Oeste 0 927 2.3 61
2020-01-17 08:00:00 5.9 17 Noroeste 39 Noroeste 0 926.2 1.5 59
2020-01-17 07:00:00 5.8 28 Noroeste 41 Noroeste 0 925.5 0 56
2020-01-17 06:00:00 5.4 26 Noroeste 37 Noroeste 0 924.7 -1 58
2020-01-17 05:00:00 5 16 Noroeste 22 Oeste 0 924.7 -0.6 57
2020-01-17 04:00:00 5.5 15 Noroeste 27 Noroeste 0 925.5 0.1 54
2020-01-17 03:00:00 5.6 21 Noroeste 27 Noroeste 0 925.7 0.1 52
2020-01-17 02:00:00 5.5 13 Noroeste 21 Oeste 0 925.3 -0.2 52
2020-01-17 01:00:00 5.3 11 Noroeste 20 Oeste 0 925.4 0 55
2020-01-17 00:00:00 5.7 0 Calma 8 Oeste 0 925.6 0.3 56
2020-01-16 23:00:00 6 0 Calma 8 Noroeste 0 925.5 0.6 59
2020-01-16 22:00:00 6.8 0 Calma 4 Norte 0 925.4 0.7 61
2020-01-16 21:00:00 7.5 0 Calma -- -- 0 925.3 0.8 62
2020-01-16 20:00:00 7.9 0 Calma 5 Sudeste 0 924.9 0.1 62
2020-01-16 19:00:00 8 5 Sudeste 12 Norte 0 924.7 -0.1 59
2020-01-16 18:00:00 9.5 8 Norte 17 Norte 0 924.5 -0.7 53
2020-01-16 17:00:00 13.9 4 Noroeste 15 Sudoeste 0 924.8 -0.6 40
2020-01-16 16:00:00 15.1 8 Oeste 15 Oeste 0 924.8 -1.3 39
2020-01-16 15:00:00 14.9 10 Sudoeste 18 Oeste 0 925.2 -1.6 41
2020-01-16 14:00:00 14.6 9 Sudoeste 17 Sudoeste 0 925.4 -1.1 44
2020-01-16 13:00:00 13.1 4 Oeste 9 Oeste 0 926.1 0.6 48
2020-01-16 12:00:00 12.7 4 Sudeste 8 Sur 0 926.8 1.7 52
2020-01-16 11:00:00 10.3 4 Sur 7 Sur 0 926.5 1.7 57
2020-01-16 10:00:00 7 0 Calma 5 Sudeste 0 925.5 0.8 67
2020-01-16 09:00:00 4.3 0 Calma 6 Norte 0 925.1 0.4 70
2020-01-16 08:00:00 3.8 4 Noroeste 7 Norte 0 924.8 -0.1 64
2020-01-16 07:00:00 3.6 4 Norte 9 Norte 0 924.7 -0.4 62
2020-01-16 06:00:00 3.4 4 Nordeste 8 Nordeste 0 924.7 -0.1 60
2020-01-16 05:00:00 3.8 4 Norte 7 Norte 0 924.9 0.2 60
2020-01-16 04:00:00 3.6 0 Calma 13 Norte 0 925.1 0.2 62
2020-01-16 03:00:00 4 11 Norte 14 Norte 0 924.8 -0.3 64
2020-01-16 02:00:00 3.8 9 Norte 13 Norte 0 924.7 -0.6 66
2020-01-16 01:00:00 4.1 10 Norte 14 Noroeste 0 924.9 -0.2 66
2020-01-16 00:00:00 4.4 10 Norte 14 Norte 0 925.1 0.1 66
2020-01-15 23:00:00 5.1 10 Norte 18 Noroeste 0 925.3 0.6 65
2020-01-15 22:00:00 5.3 8 Noroeste 13 Noroeste 0 925.1 0.6 68
2020-01-15 21:00:00 5.6 9 Norte 14 Noroeste 0 925 0.6 70
2020-01-15 20:00:00 5.8 10 Norte 13 Noroeste 0 924.7 0.4 68
2020-01-15 19:00:00 6.6 10 Norte 18 Norte 0 924.5 0.5 62
2020-01-15 18:00:00 8.5 14 Norte 23 Norte 0 924.4 0.6 53
2020-01-15 17:00:00 10.3 12 Norte 26 Noroeste 0 924.3 0.3 45
2020-01-15 16:00:00 11.2 13 Noroeste 32 Noroeste 0 924 -0.2 45
2020-01-15 15:00:00 10.8 15 Noroeste 30 Noroeste 0 923.8 -0.3 46
2020-01-15 14:00:00 10.5 14 Oeste 27 Oeste 0 924 0.9 47
2020-01-15 13:00:00 9.2 16 Noroeste 25 Noroeste 0 924.2 2.2 52
2020-01-15 12:00:00 8.8 8 Sudoeste 20 Noroeste 0 924.1 2.9 61
2020-01-15 11:00:00 5.7 8 Noroeste 19 Noroeste 0 923.1 2.4 71
2020-01-15 10:00:00 3.8 6 Oeste 14 Noroeste 0 922 1.9 82
2020-01-15 09:00:00 2.1 12 Noroeste 23 Noroeste 0 921.2 1.1 85
2020-01-15 08:00:00 1.2 10 Norte 24 Noroeste 0 920.7 0.7 86
2020-01-15 07:00:00 1.2 15 Norte 23 Norte 0 920.1 0 87
2020-01-15 06:00:00 1.4 13 Noroeste 27 Noroeste 0 920.1 0 84
2020-01-15 05:00:00 1.5 14 Noroeste 23 Noroeste 0 920 0.3 84
2020-01-15 04:00:00 1.7 14 Noroeste 23 Noroeste 0 920.1 0 83
2020-01-15 03:00:00 1.5 14 Noroeste 24 Noroeste 0 920.1 -0.2 83
2020-01-15 02:00:00 2.1 13 Noroeste 24 Noroeste 0 919.7 -0.7 80
2020-01-15 01:00:00 1.4 11 Norte 20 Noroeste 0 920.1 -0.1 79
2020-01-15 00:00:00 2.7 14 Noroeste 20 Norte 0 920.3 0 74
2020-01-14 23:00:00 2.9 13 Noroeste 24 Norte 0 920.4 0.5 71
2020-01-14 22:00:00 2.5 13 Norte 24 Norte 0 920.2 0.7 71
2020-01-14 21:00:00 3.4 16 Noroeste 30 Noroeste 0 920.3 1 67
2020-01-14 20:00:00 3.4 14 Norte 18 Norte 0 919.9 0.5 67
2020-01-14 19:00:00 3.8 14 Norte 19 Norte 0 919.5 0.1 65
2020-01-14 18:00:00 5.2 11 Norte 25 Norte 0 919.3 0 60
2020-01-14 17:00:00 7.2 16 Norte 26 Norte 0 919.4 -0.3 55
2020-01-14 16:00:00 7.7 14 Noroeste 26 Noroeste 0 919.4 -0.7 55
2020-01-14 15:00:00 7.2 14 Noroeste 28 Noroeste 0 919.3 -1.2 56
2020-01-14 14:00:00 6.2 14 Noroeste 25 Noroeste 0 919.7 -0.8 58
2020-01-14 13:00:00 5.8 11 Noroeste 23 Noroeste 0 920.1 0.4 61
2020-01-14 12:00:00 5.1 10 Noroeste 22 Oeste 0 920.5 1.4 64
2020-01-14 11:00:00 3.5 10 Norte 22 Noroeste 0 920.5 1.8 72
2020-01-14 10:00:00 1.6 10 Noroeste 23 Noroeste 0 919.7 0.6 80
2020-01-14 09:00:00 0.1 13 Noroeste 23 Noroeste 0 919.1 0.5 85
2020-01-14 08:00:00 -0.1 14 Norte 20 Noroeste 0 918.7 -0.1 84
2020-01-14 07:00:00 0.2 6 Norte 25 Noroeste 0 919.1 0.2 78
2020-01-14 06:00:00 0.9 15 Noroeste 31 Noroeste 0 918.6 -0.7 76
2020-01-14 05:00:00 0.8 15 Noroeste 32 Noroeste 0 918.8 -0.8 73
2020-01-14 04:00:00 1.5 18 Noroeste 34 Noroeste 0 918.9 -1.3 68
2020-01-14 03:00:00 1.6 15 Noroeste 32 Noroeste 0 919.3 -1.2 65
2020-01-14 02:00:00 1.9 17 Noroeste 28 Noroeste 0 919.6 -0.8 64
2020-01-14 01:00:00 2 14 Noroeste 19 Noroeste 0 920.2 -0.5 68
2020-01-14 00:00:00 2.4 10 Noroeste 17 Noroeste 0 920.5 -0.3 65
2020-01-13 23:00:00 2.1 5 Norte 9 Norte 0 920.4 -0.4 68
2020-01-13 22:00:00 2.5 7 Norte 13 Norte 0 920.7 -0.4 65
2020-01-13 21:00:00 3 8 Norte 15 Norte 0 920.8 -0.4 61
2020-01-13 20:00:00 3.2 12 Norte 17 Norte 0 920.8 -0.5 59
2020-01-13 19:00:00 4.2 13 Norte 23 Norte 0 921.1 0 53
2020-01-13 18:00:00 5.8 19 Norte 29 Noroeste 0 921.2 -0.1 49
2020-01-13 17:00:00 7.3 20 Norte 32 Norte 0 921.3 -0.9 47
2020-01-13 16:00:00 7.9 12 Norte 24 Norte 0 921.1 -1.7 45
2020-01-13 15:00:00 7.2 13 Norte 25 Noroeste 0 921.3 -2.4 46
2020-01-13 14:00:00 7.3 15 Norte 26 Noroeste 0 922.2 -1.1 43
2020-01-13 13:00:00 7.3 13 Noroeste 22 Norte 0 922.8 0.3 43
2020-01-13 12:00:00 6.4 13 Norte 21 Norte 0 923.7 1.3 45
2020-01-13 11:00:00 4.7 8 Norte 18 Norte 0 923.3 1.2 56
2020-01-13 10:00:00 2.5 0 Calma 6 Norte 0 922.5 0.6 68
2020-01-13 09:00:00 -0.1 2 Norte 13 Norte 0 922.4 0.2 68
2020-01-13 08:00:00 0 9 Norte 13 Norte 0 922.1 -0.6 71
2020-01-13 07:00:00 -0.1 0 Calma 5 Norte 0 921.9 -1 71
2020-01-13 06:00:00 -0.4 0 Calma 5 Sudeste 0 922.2 -1.4 71
2020-01-13 05:00:00 0.3 0 Calma 3 Norte 0 922.7 -1.2 70
2020-01-13 04:00:00 0 0 Calma 7 Este 0 922.9 -1.8 71
2020-01-13 03:00:00 -0.7 5 Este 7 Este 0 923.6 -1.8 69
2020-01-13 02:00:00 0.8 5 Norte 8 Norte 0 923.9 -1.7 66
2020-01-13 01:00:00 0.7 0 Calma 3 Norte 0 924.7 -1.1 65
2020-01-13 00:00:00 0.7 0 Calma 5 Nordeste 0 925.4 -0.4 63
2020-01-12 23:00:00 1.5 2 Sur 9 Norte 0 925.6 -0.3 59
2020-01-12 22:00:00 2.2 5 Norte 28 Norte 0 925.8 0.4 57
2020-01-12 21:00:00 3.6 11 Norte 17 Nordeste 0 925.8 0.1 53
2020-01-12 20:00:00 4.1 12 Norte 17 Norte 0 925.9 0 51
2020-01-12 19:00:00 3.8 9 Norte 12 Norte 0 925.4 -0.2 52
2020-01-12 18:00:00 6.2 8 Noroeste 13 Noroeste 0 925.7 0.2 45
2020-01-12 17:00:00 8 10 Noroeste 19 Norte 0 925.9 0.2 40
2020-01-12 16:00:00 8.1 12 Norte 24 Norte 0 925.6 -0.6 40
2020-01-12 15:00:00 7.5 17 Norte 30 Norte 0 925.5 -1.2 44
2020-01-12 14:00:00 6.8 17 Noroeste 39 Noroeste 0 925.7 -0.7 50
2020-01-12 13:00:00 5.1 18 Norte 33 Norte 0 926.2 0.5 58
2020-01-12 12:00:00 3.7 19 Noroeste 29 Norte 0 926.7 1.5 64
2020-01-12 11:00:00 2.5 14 Norte 26 Norte 0 926.4 1.3 68
2020-01-12 10:00:00 0.5 14 Norte 22 Norte 0 925.7 0.8 78
2020-01-12 09:00:00 -1.1 12 Norte 17 Norte 0 925.2 0.4 80
2020-01-12 08:00:00 -1 13 Norte 17 Norte 0 925.1 0.1 78
2020-01-12 07:00:00 -0.7 14 Norte 18 Norte 0 924.9 -0.5 78
2020-01-12 06:00:00 -0.7 0 Calma 7 Norte 0 924.8 -0.8 78
2020-01-12 05:00:00 -0.5 5 Norte 8 Norte 0 925 -0.7 78
2020-01-12 04:00:00 -1.2 4 Norte 10 Norte 0 925.4 -0.5 76
2020-01-12 03:00:00 -0.4 5 Norte 11 Norte 0 925.6 -0.5 74
2020-01-12 02:00:00 0.1 4 Norte 10 Norte 0 925.7 -0.7 71
2020-01-12 01:00:00 0.9 8 Norte 13 Norte 0 925.9 -0.6 69
2020-01-12 00:00:00 1 4 Norte 11 Norte 0 926.1 -0.5 67
2020-01-11 23:00:00 1.8 8 Norte 11 Norte 0 926.4 -0.1 64
2020-01-11 22:00:00 2.6 2 Norte 6 Nordeste 0 926.5 0.2 61
2020-01-11 21:00:00 3.1 2 Norte 8 Norte 0 926.6 0.2 59
2020-01-11 20:00:00 3.6 4 Norte 6 Norte 0 926.5 0.1 58
2020-01-11 19:00:00 3.9 6 Norte 7 Norte 0 926.3 0 55
2020-01-11 18:00:00 5.9 4 Noroeste 13 Noroeste 0 926.4 0.2 49
2020-01-11 17:00:00 7.9 8 Noroeste 14 Noroeste 0 926.4 -0.2 45
2020-01-11 16:00:00 8.1 6 Norte 17 Norte 0 926.3 -0.9 46
2020-01-11 15:00:00 7.5 9 Norte 21 Norte 0 926.2 -1.5 49
2020-01-11 14:00:00 6.8 13 Norte 19 Norte 0 926.6 -0.9 52
2020-01-11 13:00:00 6.8 9 Noroeste 15 Noroeste 0 927.2 0.9 53
2020-01-11 12:00:00 4.6 9 Norte 16 Norte 0 927.7 2.4 61
2020-01-11 11:00:00 4.6 2 Sudoeste 10 Sudoeste 0 927.5 2.8 68
2020-01-11 10:00:00 1.6 3 Sur 5 Sur 0 926.3 1.8 79
2020-01-11 09:00:00 -1.6 0 Calma 9 Norte 0 925.3 1 84
2020-01-11 08:00:00 -1.7 0 Calma 11 Norte 0 924.7 0.1 84
2020-01-11 07:00:00 -1.6 5 Norte 8 Norte 0 924.5 0.1 84
2020-01-11 06:00:00 -1.2 3 Norte 7 Noroeste 0 924.3 -0.2 81
2020-01-11 05:00:00 -1 4 Sur 16 Nordeste 0 924.6 0.3 76
2020-01-11 04:00:00 1.6 10 Nordeste 24 Norte 0 924.4 0.3 74
2020-01-11 03:00:00 0.3 15 Norte 23 Norte 0 924.5 0.1 77
2020-01-11 02:00:00 1.2 13 Norte 19 Norte 0 924.3 -0.1 71
2020-01-11 01:00:00 1.2 5 Nordeste 14 Nordeste 0 924.1 0.2 71
2020-01-11 00:00:00 1.1 7 Nordeste 13 Nordeste 0 924.4 0.4 70
2020-01-10 23:00:00 1.9 9 Nordeste 19 Nordeste 0 924.4 0.6 69
2020-01-10 22:00:00 2.7 10 Nordeste 22 Nordeste 0 923.9 0.8 66
2020-01-10 21:00:00 2.8 6 Norte 26 Nordeste 0 924 1.4 57
2020-01-10 20:00:00 4.2 13 Nordeste 28 Nordeste 0 923.8 1.2 52
2020-01-10 19:00:00 4.2 11 Norte 24 Norte 0 923.1 0.9 51
2020-01-10 18:00:00 5.9 13 Nordeste 26 Norte 0 922.6 0.4 44
2020-01-10 17:00:00 8 10 Nordeste 32 Norte 0 922.6 0.5 40
2020-01-10 16:00:00 8.3 10 Nordeste 32 Nordeste 0 922.2 -0.1 40
2020-01-10 15:00:00 8.2 14 Nordeste 44 Norte 0 922.2 -0.4 40
2020-01-10 14:00:00 7.1 19 Norte 36 Nordeste 0 922.1 -0.5 46
2020-01-10 13:00:00 5.8 18 Norte 33 Nordeste 0 922.3 0.1 61
2020-01-10 12:00:00 4.4 13 Noroeste 22 Norte 0 922.6 0.8 79
2020-01-10 11:00:00 3 12 Norte 20 Norte 0 922.6 1.6 88
2020-01-10 10:00:00 2.1 13 Norte 25 Norte 0 922.2 1.5 90
2020-01-10 09:00:00 2.5 17 Norte 25 Norte 0 921.8 1.1 90
2020-01-10 08:00:00 2.4 15 Norte 25 Norte 0 921 0.4 90
2020-01-10 07:00:00 2.4 13 Noroeste 26 Noroeste 0 920.7 -0.2 90
2020-01-10 06:00:00 2.5 13 Norte 27 Norte 0 920.7 -0.3 87
2020-01-10 05:00:00 2.2 17 Noroeste 24 Noroeste 0 920.6 -0.1 87
2020-01-10 04:00:00 2.5 18 Norte 29 Noroeste 0 920.9 0 85
2020-01-10 03:00:00 2.9 14 Norte 36 Noroeste 0 921 -0.6 82
2020-01-10 02:00:00 3.5 13 Noroeste 36 Noroeste 0 920.7 -1.8 79
2020-01-10 01:00:00 4.1 18 Noroeste 30 Noroeste 0 920.9 -0.9 71
2020-01-10 00:00:00 4 14 Norte 32 Noroeste 0 921.6 -0.2 77
2020-01-09 23:00:00 4.8 15 Noroeste 28 Noroeste 0 922.5 -0.2 74
2020-01-09 22:00:00 4.1 5 Norte 8 Norte 0 921.8 -1.5 78
2020-01-09 21:00:00 4.8 0 Calma 10 Norte 0 921.8 -0.9 72
2020-01-09 20:00:00 5.9 9 Norte 13 Norte 0 922.7 -0.1 66
2020-01-09 19:00:00 6.8 4 Norte 14 Sudoeste 0 923.3 0.2 60
2020-01-09 18:00:00 10 0 Calma -- -- 0 922.7 -0.7 46
2020-01-09 17:00:00 12.6 0 Calma 13 Oeste 0 922.8 -0.8 42
2020-01-09 16:00:00 11.9 3 Noroeste 8 Oeste 0 923.1 -0.7 45
2020-01-09 15:00:00 11.4 4 Sur 10 Sur 0 923.4 -0.9 53
2020-01-09 14:00:00 9.2 6 Sudeste 13 Sudeste 0 923.6 -0.8 71
2020-01-09 13:00:00 5.3 5 Sudeste 13 Sudeste 0 923.8 -0.1 93
2020-01-09 12:00:00 4.1 7 Sudeste 14 Sur 0 924.3 0.6 93
2020-01-09 11:00:00 3.6 9 Sur 14 Sur 0 924.4 0.8 93
2020-01-09 10:00:00 2.7 10 Sudeste 14 Sudeste 0 923.9 0.2 93
2020-01-09 09:00:00 2 8 Sudeste 15 Sudeste 0 923.7 0 93
2020-01-09 08:00:00 1.7 12 Sudeste 15 Sudeste 0 923.6 -0.6 93
2020-01-09 07:00:00 2.1 8 Sudeste 12 Sur 0.1 923.7 -0.8 93
2020-01-09 06:00:00 2.2 10 Sudeste 16 Sur 0 923.7 -1 93
2020-01-09 05:00:00 2.4 12 Sudeste 17 Sudeste 0 924.2 -0.7 93
2020-01-09 04:00:00 2.1 9 Este 15 Sudeste 0 924.5 -0.6 91
2020-01-09 03:00:00 1.6 11 Sudeste 17 Este 0 924.7 -0.8 90
2020-01-09 02:00:00 2.3 13 Este 22 Sudeste 0 924.9 -0.9 90
2020-01-09 01:00:00 1.9 13 Este 19 Sudeste 0 925.1 -0.7 89
2020-01-09 00:00:00 2.2 15 Este 21 Este 0 925.5 -0.4 87
2020-01-08 23:00:00 2.9 17 Este 20 Este 0 925.8 -0.1 87
2020-01-08 22:00:00 3.2 16 Este 21 Este 0 925.8 -0.3 87
2020-01-08 21:00:00 3.6 15 Este 20 Sudeste 0 925.9 -0.5 84
2020-01-08 20:00:00 4.1 16 Este 23 Sudeste 0 925.9 -0.6 81
2020-01-08 19:00:00 5.4 17 Sudeste 21 Este 0 926.1 -0.2 71
2020-01-08 18:00:00 8.2 15 Sudeste 24 Sudeste 0 926.4 0 54
2020-01-08 17:00:00 12.4 16 Sudeste 27 Sudeste 0 926.5 -0.3 37
2020-01-08 16:00:00 13.6 16 Sudeste 27 Sudeste 0 926.3 -0.6 35
2020-01-08 15:00:00 13.9 17 Sudeste 31 Sur 0 926.4 -0.3 33
2020-01-08 14:00:00 14.1 16 Sudeste 26 Este 0 926.8 0.3 36
2020-01-08 13:00:00 12.9 6 Sudeste 10 Sudeste 0 926.9 0.9 43
2020-01-08 12:00:00 8.9 0 Calma 14 Norte 0 926.7 1.4 55
2020-01-08 11:00:00 5.6 12 Norte 22 Norte 0 926.5 1.7 62
2020-01-08 10:00:00 3.4 11 Norte 16 Norte 0 926 1.4 67
2020-01-08 09:00:00 3.6 3 Este 26 Norte 0 925.3 0.7 61
2020-01-08 08:00:00 3.7 15 Norte 27 Norte 0 924.8 -0.1 58
2020-01-08 07:00:00 3.1 4 Noroeste 16 Noroeste 0 924.6 -0.6 58
2020-01-08 06:00:00 3.4 8 Norte 16 Nordeste 0 924.6 -0.7 59
2020-01-08 05:00:00 3 5 Norte 15 Nordeste 0 924.9 -0.6 65
2020-01-08 04:00:00 2.8 6 Norte 10 Norte 0 925.2 -0.7 66
2020-01-08 03:00:00 3.6 5 Norte 9 Norte 0 925.3 -1 66
2020-01-08 02:00:00 3.6 3 Noroeste 10 Norte 0 925.5 -1.1 63
2020-01-08 01:00:00 4.7 12 Norte 16 Norte 0 925.9 -0.9 56
2020-01-08 00:00:00 5.2 12 Norte 18 Norte 0 926.3 -0.4 50
2020-01-07 23:00:00 5.4 3 Noroeste 12 Norte 0 926.6 0.3 49
2020-01-07 22:00:00 6.2 6 Norte 13 Noroeste 0 926.8 0.4 48
2020-01-07 21:00:00 6.8 10 Norte 17 Norte 0 926.7 0.3 48
2020-01-07 20:00:00 6.7 14 Norte 18 Norte 0 926.3 -0.3 51
2020-01-07 19:00:00 7 13 Norte 18 Norte 0 926.4 -0.1 49
2020-01-07 18:00:00 7.9 11 Norte 22 Norte 0 926.4 -0.1 48
2020-01-07 17:00:00 10 15 Norte 23 Norte 0 926.6 -0.7 45
2020-01-07 16:00:00 10.3 14 Norte 21 Norte 0 926.5 -1.3 41
2020-01-07 15:00:00 10.8 8 Norte 16 Noroeste 0 926.5 -2.1 40
2020-01-07 14:00:00 10 8 Noroeste 17 Norte 0 927.3 -0.7 44
2020-01-07 13:00:00 9 12 Norte 18 Norte 0 927.8 0.3 45
2020-01-07 12:00:00 8.5 9 Norte 14 Norte 0 928.6 2 45
2020-01-07 11:00:00 6.7 5 Norte 14 Norte 0 928 1.7 58
2020-01-07 10:00:00 4.5 10 Norte 14 Norte 0 927.5 1.3 65
2020-01-07 09:00:00 2.9 6 Norte 14 Norte 0 926.6 0.5 71
2020-01-07 08:00:00 2.7 6 Norte 12 Norte 0 926.3 0 71
2020-01-07 07:00:00 2.3 0 Calma 20 Norte 0 926.2 0 72
2020-01-07 06:00:00 3.2 15 Norte 22 Norte 0 926.1 -0.2 73
2020-01-07 05:00:00 3.4 4 Norte 14 Norte 0 926.3 0.1 72
2020-01-07 04:00:00 3.5 7 Norte 20 Norte 0 926.2 -0.1 73
2020-01-07 03:00:00 3.5 15 Norte 26 Nordeste 0 926.3 -0.2 74
2020-01-07 02:00:00 3.5 12 Norte 23 Norte 0 926.2 0 69
2020-01-07 01:00:00 3.7 5 Noroeste 17 Norte 0 926.3 0.1 62
2020-01-07 00:00:00 4.2 7 Norte 13 Norte 0 926.5 0.6 63
2020-01-06 23:00:00 4.9 6 Noroeste 12 Norte 0 926.2 0.6 56
2020-01-06 22:00:00 5.3 4 Oeste 12 Norte 0 926.2 0.8 54
2020-01-06 21:00:00 5.9 7 Norte 12 Norte 0 925.9 0.3 51
2020-01-06 20:00:00 6.1 2 Norte 10 Noroeste 0 925.6 0.3 49
2020-01-06 19:00:00 6.8 5 Norte 15 Norte 0 925.4 -0.4 49
2020-01-06 18:00:00 8.8 11 Norte 15 Norte 0 925.6 0.2 39
2020-01-06 17:00:00 11.8 6 Norte 18 Noroeste 0 925.3 -0.5 35
2020-01-06 16:00:00 13.8 10 Noroeste 17 Noroeste 0 925.8 -0.7 27
2020-01-06 15:00:00 15.4 3 Sudoeste 12 Sudoeste 0 925.4 -1.6 22
2020-01-06 14:00:00 15.4 6 Sudoeste 12 Sur 0 925.8 -0.9 23
2020-01-06 13:00:00 14.3 9 Sudoeste 14 Sudoeste 0 926.5 0.6 25
2020-01-06 12:00:00 12.8 8 Sur 12 Sur 0 927 1.7 28
2020-01-06 11:00:00 10.8 2 Sur 8 Sudeste 0 926.7 2 42
2020-01-06 10:00:00 8 5 Sudeste 7 Sudeste 0 925.9 1.7 49